sensor_id;sensor_type;location;lat;lon;timestamp;pressure;altitude;pressure_sealevel;temperature;humidity
28432;BME280;15664;51.302;7.744;2023-03-25T00:02:31;83295.69;;;-146.98;100.00
28432;BME280;15664;51.302;7.744;2023-03-25T00:04:57;83277.38;;;-146.98;100.00
28432;BME280;15664;51.302;7.744;2023-03-25T00:07:25;83305.88;;;-146.98;100.00
28432;BME280;15664;51.302;7.744;2023-03-25T00:09:50;83324.22;;;-146.98;100.00
28432;BME280;15664;51.302;7.744;2023-03-25T00:12:16;83328.28;;;-146.98;100.00
28432;BME280;15664;51.302;7.744;2023-03-25T00:14:42;83246.81;;;-146.98;100.00
28432;BME280;15664;51.302;7.744;2023-03-25T00:17:08;83301.81;;;-146.98;100.00
28432;BME280;15664;51.302;7.744;2023-03-25T00:19:34;83356.78;;;-146.98;100.00
28432;BME280;15664;51.302;7.744;2023-03-25T00:22:00;83299.75;;;-146.98;100.00
28432;BME280;15664;51.302;7.744;2023-03-25T00:24:26;83289.59;;;-146.98;100.00
28432;BME280;15664;51.302;7.744;2023-03-25T00:26:52;83366.97;;;-146.98;100.00
28432;BME280;15664;51.302;7.744;2023-03-25T00:29:19;83305.88;;;-146.98;100.00
28432;BME280;15664;51.302;7.744;2023-03-25T00:31:45;83269.22;;;-146.98;100.00
28432;BME280;15664;51.302;7.744;2023-03-25T00:34:11;83259.03;;;-146.98;100.00
28432;BME280;15664;51.302;7.744;2023-03-25T00:36:40;83303.84;;;-146.98;100.00
28432;BME280;15664;51.302;7.744;2023-03-25T00:39:08;83259.03;;;-146.98;100.00
28432;BME280;15664;51.302;7.744;2023-03-25T00:41:34;83336.41;;;-146.98;100.00
28432;BME280;15664;51.302;7.744;2023-03-25T00:44:02;83277.38;;;-146.98;100.00
28432;BME280;15664;51.302;7.744;2023-03-25T00:46:30;83299.75;;;-146.98;100.00
28432;BME280;15664;51.302;7.744;2023-03-25T00:48:57;83338.47;;;-146.98;100.00
28432;BME280;15664;51.302;7.744;2023-03-25T00:51:24;83334.38;;;-146.98;100.00
28432;BME280;15664;51.302;7.744;2023-03-25T00:53:55;83303.84;;;-146.98;100.00
28432;BME280;15664;51.302;7.744;2023-03-25T00:56:22;83295.69;;;-146.98;100.00
28432;BME280;15664;51.302;7.744;2023-03-25T00:58:48;83301.81;;;-146.98;100.00
28432;BME280;15664;51.302;7.744;2023-03-25T01:01:17;83311.97;;;-146.98;100.00
28432;BME280;15664;51.302;7.744;2023-03-25T01:03:43;83364.94;;;-146.98;100.00
28432;BME280;15664;51.302;7.744;2023-03-25T01:08:36;83307.91;;;-146.98;100.00
28432;BME280;15664;51.302;7.744;2023-03-25T01:11:01;83311.97;;;-146.98;100.00
28432;BME280;15664;51.302;7.744;2023-03-25T01:13:27;83311.97;;;-146.98;100.00
28432;BME280;15664;51.302;7.744;2023-03-25T01:15:52;83311.97;;;-146.98;100.00
28432;BME280;15664;51.302;7.744;2023-03-25T01:18:18;83275.31;;;-146.98;100.00
28432;BME280;15664;51.302;7.744;2023-03-25T01:20:44;83297.72;;;-146.98;100.00
28432;BME280;15664;51.302;7.744;2023-03-25T01:23:10;83322.16;;;-146.98;100.00
28432;BME280;15664;51.302;7.744;2023-03-25T01:25:36;83283.47;;;-146.98;100.00
28432;BME280;15664;51.302;7.744;2023-03-25T01:28:01;83285.50;;;-146.98;100.00
28432;BME280;15664;51.302;7.744;2023-03-25T01:30:27;83307.91;;;-146.98;100.00
28432;BME280;15664;51.302;7.744;2023-03-25T01:32:53;83316.06;;;-146.98;100.00
28432;BME280;15664;51.302;7.744;2023-03-25T01:35:19;83303.84;;;-146.98;100.00
28432;BME280;15664;51.302;7.744;2023-03-25T01:37:44;83320.13;;;-146.98;100.00
28432;BME280;15664;51.302;7.744;2023-03-25T01:40:17;83222.38;;;-146.98;100.00
28432;BME280;15664;51.302;7.744;2023-03-25T01:42:43;83275.31;;;-146.98;100.00
28432;BME280;15664;51.302;7.744;2023-03-25T01:45:13;83305.88;;;-146.98;100.00
28432;BME280;15664;51.302;7.744;2023-03-25T01:47:41;83281.44;;;-146.98;100.00
28432;BME280;15664;51.302;7.744;2023-03-25T01:50:08;83265.16;;;-146.98;100.00
28432;BME280;15664;51.302;7.744;2023-03-25T01:52:35;83299.75;;;-146.98;100.00
28432;BME280;15664;51.302;7.744;2023-03-25T01:55:01;83289.59;;;-146.98;100.00
28432;BME280;15664;51.302;7.744;2023-03-25T01:57:27;83283.47;;;-146.98;100.00
28432;BME280;15664;51.302;7.744;2023-03-25T01:59:55;83316.06;;;-146.98;100.00
28432;BME280;15664;51.302;7.744;2023-03-25T02:02:22;83291.63;;;-146.98;100.00
28432;BME280;15664;51.302;7.744;2023-03-25T02:05:26;83281.44;;;-146.98;100.00
28432;BME280;15664;51.302;7.744;2023-03-25T02:07:50;83287.53;;;-146.98;100.00
28432;BME280;15664;51.302;7.744;2023-03-25T02:10:17;83257.00;;;-146.98;100.00
28432;BME280;15664;51.302;7.744;2023-03-25T02:12:44;83303.84;;;-146.98;100.00
28432;BME280;15664;51.302;7.744;2023-03-25T02:15:11;83328.28;;;-146.98;100.00
28432;BME280;15664;51.302;7.744;2023-03-25T02:20:48;83354.75;;;-146.98;100.00
28432;BME280;15664;51.302;7.744;2023-03-25T02:23:36;83277.38;;;-146.98;100.00
28432;BME280;15664;51.302;7.744;2023-03-25T02:31:46;83340.50;;;-146.98;100.00
28432;BME280;15664;51.302;7.744;2023-03-25T02:40:19;83324.22;;;-146.98;100.00
28432;BME280;15664;51.302;7.744;2023-03-25T02:43:11;83299.75;;;-146.98;100.00
28432;BME280;15664;51.302;7.744;2023-03-25T02:45:44;83316.06;;;-146.98;100.00
28432;BME280;15664;51.302;7.744;2023-03-25T02:48:20;83322.16;;;-146.98;100.00
28432;BME280;15664;51.302;7.744;2023-03-25T02:50:52;83293.66;;;-146.98;100.00
28432;BME280;15664;51.302;7.744;2023-03-25T02:53:26;83320.13;;;-146.98;100.00
28432;BME280;15664;51.302;7.744;2023-03-25T02:55:56;83318.09;;;-146.98;100.00
28432;BME280;15664;51.302;7.744;2023-03-25T02:58:26;83305.88;;;-146.98;100.00
28432;BME280;15664;51.302;7.744;2023-03-25T03:00:54;83295.69;;;-146.98;100.00
28432;BME280;15664;51.302;7.744;2023-03-25T03:03:24;83295.69;;;-146.98;100.00
28432;BME280;15664;51.302;7.744;2023-03-25T03:05:57;83299.75;;;-146.98;100.00
28432;BME280;15664;51.302;7.744;2023-03-25T03:17:12;83356.78;;;-146.98;100.00
28432;BME280;15664;51.302;7.744;2023-03-25T03:20:03;83279.41;;;-146.98;100.00
28432;BME280;15664;51.302;7.744;2023-03-25T03:22:38;83301.81;;;-146.98;100.00
28432;BME280;15664;51.302;7.744;2023-03-25T03:25:18;83265.16;;;-146.98;100.00
28432;BME280;15664;51.302;7.744;2023-03-25T03:32:56;83318.09;;;-146.98;100.00
28432;BME280;15664;51.302;7.744;2023-03-25T03:35:28;83322.16;;;-146.98;100.00
28432;BME280;15664;51.302;7.744;2023-03-25T03:38:09;83373.09;;;-146.98;100.00
28432;BME280;15664;51.302;7.744;2023-03-25T03:40:39;83320.13;;;-146.98;100.00
28432;BME280;15664;51.302;7.744;2023-03-25T03:43:09;83354.75;;;-146.98;100.00
28432;BME280;15664;51.302;7.744;2023-03-25T03:45:43;83354.75;;;-146.98;100.00
28432;BME280;15664;51.302;7.744;2023-03-25T03:48:18;83297.72;;;-146.98;100.00
28432;BME280;15664;51.302;7.744;2023-03-25T03:50:50;83340.50;;;-146.98;100.00
28432;BME280;15664;51.302;7.744;2023-03-25T03:53:27;83322.16;;;-146.98;100.00
28432;BME280;15664;51.302;7.744;2023-03-25T03:56:10;83338.47;;;-146.98;100.00
28432;BME280;15664;51.302;7.744;2023-03-25T03:58:40;83240.72;;;-146.98;100.00
28432;BME280;15664;51.302;7.744;2023-03-25T04:01:18;83320.13;;;-146.98;100.00
28432;BME280;15664;51.302;7.744;2023-03-25T04:03:59;83328.28;;;-146.98;100.00
28432;BME280;15664;51.302;7.744;2023-03-25T04:09:08;83324.22;;;-146.98;100.00
28432;BME280;15664;51.302;7.744;2023-03-25T04:11:42;83338.47;;;-146.98;100.00
28432;BME280;15664;51.302;7.744;2023-03-25T04:14:11;83375.13;;;-146.98;100.00
28432;BME280;15664;51.302;7.744;2023-03-25T04:16:37;83348.66;;;-146.98;100.00
28432;BME280;15664;51.302;7.744;2023-03-25T04:19:04;83375.13;;;-146.98;100.00
28432;BME280;15664;51.302;7.744;2023-03-25T04:21:30;83371.03;;;-146.98;100.00
28432;BME280;15664;51.302;7.744;2023-03-25T04:23:56;83352.72;;;-146.98;100.00
28432;BME280;15664;51.302;7.744;2023-03-25T04:26:27;83385.31;;;-146.98;100.00
28432;BME280;15664;51.302;7.744;2023-03-25T04:28:55;83413.81;;;-146.98;100.00
28432;BME280;15664;51.302;7.744;2023-03-25T04:31:23;83362.91;;;-146.98;100.00
28432;BME280;15664;51.302;7.744;2023-03-25T04:33:50;83426.03;;;-146.98;100.00
28432;BME280;15664;51.302;7.744;2023-03-25T04:36:15;83356.78;;;-146.98;100.00
28432;BME280;15664;51.302;7.744;2023-03-25T04:38:41;83393.44;;;-146.98;100.00
28432;BME280;15664;51.302;7.744;2023-03-25T04:41:11;83395.47;;;-146.98;100.00
28432;BME280;15664;51.302;7.744;2023-03-25T04:43:38;83344.56;;;-146.98;100.00
28432;BME280;15664;51.302;7.744;2023-03-25T04:46:05;83379.19;;;-146.98;100.00
28432;BME280;15664;51.302;7.744;2023-03-25T04:48:33;83348.66;;;-146.98;100.00
28432;BME280;15664;51.302;7.744;2023-03-25T04:51:07;83375.13;;;-146.98;100.00
28432;BME280;15664;51.302;7.744;2023-03-25T04:53:35;83401.59;;;-146.98;100.00
28432;BME280;15664;51.302;7.744;2023-03-25T04:56:01;83379.19;;;-146.98;100.00
28432;BME280;15664;51.302;7.744;2023-03-25T04:58:27;83371.03;;;-146.98;100.00
28432;BME280;15664;51.302;7.744;2023-03-25T05:00:53;83369.00;;;-146.98;100.00
28432;BME280;15664;51.302;7.744;2023-03-25T05:03:19;83405.66;;;-146.98;100.00
28432;BME280;15664;51.302;7.744;2023-03-25T05:05:54;83348.66;;;-146.98;100.00
28432;BME280;15664;51.302;7.744;2023-03-25T05:08:20;83397.53;;;-146.98;100.00
28432;BME280;15664;51.302;7.744;2023-03-25T05:10:46;83385.31;;;-146.98;100.00
28432;BME280;15664;51.302;7.744;2023-03-25T05:13:12;83381.22;;;-146.98;100.00
28432;BME280;15664;51.302;7.744;2023-03-25T05:15:38;83389.38;;;-146.98;100.00
28432;BME280;15664;51.302;7.744;2023-03-25T05:18:11;83405.66;;;-146.98;100.00
28432;BME280;15664;51.302;7.744;2023-03-25T05:20:39;83356.78;;;-146.98;100.00
28432;BME280;15664;51.302;7.744;2023-03-25T05:23:06;83364.94;;;-146.98;100.00
28432;BME280;15664;51.302;7.744;2023-03-25T05:25:38;83324.22;;;-146.98;100.00
28432;BME280;15664;51.302;7.744;2023-03-25T05:28:04;83344.56;;;-146.98;100.00
28432;BME280;15664;51.302;7.744;2023-03-25T05:30:31;83377.16;;;-146.98;100.00
28432;BME280;15664;51.302;7.744;2023-03-25T05:32:57;83322.16;;;-146.98;100.00
28432;BME280;15664;51.302;7.744;2023-03-25T05:35:25;83379.19;;;-146.98;100.00
28432;BME280;15664;51.302;7.744;2023-03-25T05:37:52;83366.97;;;-146.98;100.00
28432;BME280;15664;51.302;7.744;2023-03-25T05:40:17;83395.47;;;-146.98;100.00
28432;BME280;15664;51.302;7.744;2023-03-25T05:42:43;83348.66;;;-146.98;100.00
28432;BME280;15664;51.302;7.744;2023-03-25T05:45:14;83393.44;;;-146.98;100.00
28432;BME280;15664;51.302;7.744;2023-03-25T05:47:41;83385.31;;;-146.98;100.00
28432;BME280;15664;51.302;7.744;2023-03-25T05:50:07;83366.97;;;-146.98;100.00
28432;BME280;15664;51.302;7.744;2023-03-25T05:52:33;83301.81;;;-146.98;100.00
28432;BME280;15664;51.302;7.744;2023-03-25T05:54:59;83356.78;;;-146.98;100.00
28432;BME280;15664;51.302;7.744;2023-03-25T05:57:24;83397.53;;;-146.98;100.00
28432;BME280;15664;51.302;7.744;2023-03-25T05:59:50;83397.53;;;-146.98;100.00
28432;BME280;15664;51.302;7.744;2023-03-25T06:02:16;83366.97;;;-146.98;100.00
28432;BME280;15664;51.302;7.744;2023-03-25T06:04:42;83401.59;;;-146.98;100.00
28432;BME280;15664;51.302;7.744;2023-03-25T06:07:12;83452.50;;;-146.98;100.00
28432;BME280;15664;51.302;7.744;2023-03-25T06:09:48;83436.22;;;-146.98;100.00
28432;BME280;15664;51.302;7.744;2023-03-25T06:12:16;83393.44;;;-146.98;100.00
28432;BME280;15664;51.302;7.744;2023-03-25T06:14:45;83352.72;;;-146.98;100.00
28432;BME280;15664;51.302;7.744;2023-03-25T06:17:13;83397.53;;;-146.98;100.00
28432;BME280;15664;51.302;7.744;2023-03-25T06:19:40;83411.78;;;-146.98;100.00
28432;BME280;15664;51.302;7.744;2023-03-25T06:22:09;83430.09;;;-146.98;100.00
28432;BME280;15664;51.302;7.744;2023-03-25T06:24:39;83399.56;;;-146.98;100.00
28432;BME280;15664;51.302;7.744;2023-03-25T06:27:09;83446.41;;;-146.98;100.00
28432;BME280;15664;51.302;7.744;2023-03-25T06:29:36;83415.84;;;-146.98;100.00
28432;BME280;15664;51.302;7.744;2023-03-25T06:32:06;83419.91;;;-146.98;100.00
28432;BME280;15664;51.302;7.744;2023-03-25T06:34:32;83415.84;;;-146.98;100.00
28432;BME280;15664;51.302;7.744;2023-03-25T06:36:58;83432.13;;;-146.98;100.00
28432;BME280;15664;51.302;7.744;2023-03-25T06:39:24;83385.31;;;-146.98;100.00
28432;BME280;15664;51.302;7.744;2023-03-25T06:41:51;83426.03;;;-146.98;100.00
28432;BME280;15664;51.302;7.744;2023-03-25T06:44:23;83395.47;;;-146.98;100.00
28432;BME280;15664;51.302;7.744;2023-03-25T06:47:07;83434.19;;;-146.98;100.00
28432;BME280;15664;51.302;7.744;2023-03-25T06:49:40;83430.09;;;-146.98;100.00
28432;BME280;15664;51.302;7.744;2023-03-25T06:52:06;83424.00;;;-146.98;100.00
28432;BME280;15664;51.302;7.744;2023-03-25T06:54:32;83417.88;;;-146.98;100.00
28432;BME280;15664;51.302;7.744;2023-03-25T06:56:57;83375.13;;;-146.98;100.00
28432;BME280;15664;51.302;7.744;2023-03-25T06:59:23;83403.63;;;-146.98;100.00
28432;BME280;15664;51.302;7.744;2023-03-25T07:01:49;83352.72;;;-146.98;100.00
28432;BME280;15664;51.302;7.744;2023-03-25T07:04:14;83393.44;;;-146.98;100.00
28432;BME280;15664;51.302;7.744;2023-03-25T07:06:40;83428.06;;;-146.98;100.00
28432;BME280;15664;51.302;7.744;2023-03-25T07:09:05;83405.66;;;-146.98;100.00
28432;BME280;15664;51.302;7.744;2023-03-25T07:11:32;83393.44;;;-146.98;100.00
28432;BME280;15664;51.302;7.744;2023-03-25T07:13:58;83405.66;;;-146.98;100.00
28432;BME280;15664;51.302;7.744;2023-03-25T07:16:25;83405.66;;;-146.98;100.00
28432;BME280;15664;51.302;7.744;2023-03-25T07:18:51;83415.84;;;-146.98;100.00
28432;BME280;15664;51.302;7.744;2023-03-25T07:21:17;83436.22;;;-146.98;100.00
28432;BME280;15664;51.302;7.744;2023-03-25T07:23:43;83417.88;;;-146.98;100.00
28432;BME280;15664;51.302;7.744;2023-03-25T07:26:09;83403.63;;;-146.98;100.00
28432;BME280;15664;51.302;7.744;2023-03-25T07:28:35;83419.91;;;-146.98;100.00
28432;BME280;15664;51.302;7.744;2023-03-25T07:31:05;83397.53;;;-146.98;100.00
28432;BME280;15664;51.302;7.744;2023-03-25T07:33:31;83432.13;;;-146.98;100.00
28432;BME280;15664;51.302;7.744;2023-03-25T07:35:57;83430.09;;;-146.98;100.00
28432;BME280;15664;51.302;7.744;2023-03-25T07:38:22;83407.69;;;-146.98;100.00
28432;BME280;15664;51.302;7.744;2023-03-25T07:40:48;83428.06;;;-146.98;100.00
28432;BME280;15664;51.302;7.744;2023-03-25T07:43:13;83369.00;;;-146.98;100.00
28432;BME280;15664;51.302;7.744;2023-03-25T07:45:42;83426.03;;;-146.98;100.00
28432;BME280;15664;51.302;7.744;2023-03-25T07:48:07;83450.47;;;-146.98;100.00
28432;BME280;15664;51.302;7.744;2023-03-25T07:50:39;83415.84;;;-146.98;100.00
28432;BME280;15664;51.302;7.744;2023-03-25T07:53:04;83432.13;;;-146.98;100.00
28432;BME280;15664;51.302;7.744;2023-03-25T07:55:31;83434.19;;;-146.98;100.00
28432;BME280;15664;51.302;7.744;2023-03-25T07:57:56;83460.66;;;-146.98;100.00
28432;BME280;15664;51.302;7.744;2023-03-25T08:00:28;83411.78;;;-146.98;100.00
28432;BME280;15664;51.302;7.744;2023-03-25T08:02:54;83393.44;;;-146.98;100.00
28432;BME280;15664;51.302;7.744;2023-03-25T08:05:20;83413.81;;;-146.98;100.00
28432;BME280;15664;51.302;7.744;2023-03-25T08:07:49;83407.69;;;-146.98;100.00
28432;BME280;15664;51.302;7.744;2023-03-25T08:10:16;83373.09;;;-146.98;100.00
28432;BME280;15664;51.302;7.744;2023-03-25T08:12:43;83399.56;;;-146.98;100.00
28432;BME280;15664;51.302;7.744;2023-03-25T08:15:10;83352.72;;;-146.98;100.00
28432;BME280;15664;51.302;7.744;2023-03-25T08:17:37;83305.88;;;-146.98;100.00
28432;BME280;15664;51.302;7.744;2023-03-25T08:20:05;83350.69;;;-146.98;100.00
28432;BME280;15664;51.302;7.744;2023-03-25T08:22:31;83328.28;;;-146.98;100.00
28432;BME280;15664;51.302;7.744;2023-03-25T08:24:57;83291.63;;;-146.98;100.00
28432;BME280;15664;51.302;7.744;2023-03-25T08:27:23;83332.34;;;-146.98;100.00
28432;BME280;15664;51.302;7.744;2023-03-25T08:29:48;83322.16;;;-146.98;100.00
28432;BME280;15664;51.302;7.744;2023-03-25T08:32:23;83371.03;;;-146.98;100.00
28432;BME280;15664;51.302;7.744;2023-03-25T08:34:49;83311.97;;;-146.98;100.00
28432;BME280;15664;51.302;7.744;2023-03-25T08:37:14;83342.53;;;-146.98;100.00
28432;BME280;15664;51.302;7.744;2023-03-25T08:39:41;83324.22;;;-146.98;100.00
28432;BME280;15664;51.302;7.744;2023-03-25T08:42:10;83318.09;;;-146.98;100.00
28432;BME280;15664;51.302;7.744;2023-03-25T08:44:36;83320.13;;;-146.98;100.00
28432;BME280;15664;51.302;7.744;2023-03-25T08:47:02;83291.63;;;-146.98;100.00
28432;BME280;15664;51.302;7.744;2023-03-25T08:49:28;83299.75;;;-146.98;100.00
28432;BME280;15664;51.302;7.744;2023-03-25T08:51:53;83314.03;;;-146.98;100.00
28432;BME280;15664;51.302;7.744;2023-03-25T08:54:21;83287.53;;;-146.98;100.00
28432;BME280;15664;51.302;7.744;2023-03-25T08:56:47;83340.50;;;-146.98;100.00
28432;BME280;15664;51.302;7.744;2023-03-25T08:59:13;83318.09;;;-146.98;100.00
28432;BME280;15664;51.302;7.744;2023-03-25T09:01:38;83291.63;;;-146.98;100.00
28432;BME280;15664;51.302;7.744;2023-03-25T09:04:04;83293.66;;;-146.98;100.00
28432;BME280;15664;51.302;7.744;2023-03-25T09:06:30;83271.25;;;-146.98;100.00
28432;BME280;15664;51.302;7.744;2023-03-25T09:08:55;83287.53;;;-146.98;97.02
28432;BME280;15664;51.302;7.744;2023-03-25T09:11:21;83271.25;;;-146.98;98.00
28432;BME280;15664;51.302;7.744;2023-03-25T09:13:47;83269.22;;;-146.98;96.75
28432;BME280;15664;51.302;7.744;2023-03-25T09:16:13;83206.09;;;-146.98;97.05
28432;BME280;15664;51.302;7.744;2023-03-25T09:18:38;83242.75;;;-146.98;96.81
28432;BME280;15664;51.302;7.744;2023-03-25T09:21:04;83271.25;;;-146.98;96.35
28432;BME280;15664;51.302;7.744;2023-03-25T09:23:29;83252.94;;;-146.98;95.48
28432;BME280;15664;51.302;7.744;2023-03-25T09:25:59;83218.31;;;-146.98;96.09
28432;BME280;15664;51.302;7.744;2023-03-25T09:28:24;83244.78;;;-146.98;95.60
28432;BME280;15664;51.302;7.744;2023-03-25T09:30:50;83193.88;;;-146.98;95.76
28432;BME280;15664;51.302;7.744;2023-03-25T09:33:15;83185.72;;;-146.98;95.84
28432;BME280;15664;51.302;7.744;2023-03-25T09:35:41;83210.16;;;-146.98;96.57
28432;BME280;15664;51.302;7.744;2023-03-25T09:38:06;83261.06;;;-146.98;97.33
28432;BME280;15664;51.302;7.744;2023-03-25T09:40:33;83199.97;;;-146.98;96.66
28432;BME280;15664;51.302;7.744;2023-03-25T09:43:03;83303.84;;;-146.98;97.67
28432;BME280;15664;51.302;7.744;2023-03-25T09:45:45;83297.72;;;-146.98;98.22
28432;BME280;15664;51.302;7.744;2023-03-25T09:50:47;83228.50;;;-146.98;98.90
28432;BME280;15664;51.302;7.744;2023-03-25T09:55:51;83216.28;;;-146.98;99.25
28432;BME280;15664;51.302;7.744;2023-03-25T10:00:59;83246.81;;;-146.98;99.25
28432;BME280;15664;51.302;7.744;2023-03-25T10:03:34;83210.16;;;-146.98;100.00
28432;BME280;15664;51.302;7.744;2023-03-25T10:11:10;83261.06;;;-146.98;99.76
28432;BME280;15664;51.302;7.744;2023-03-25T10:13:49;83234.59;;;-146.98;97.67
28432;BME280;15664;51.302;7.744;2023-03-25T10:16:30;83289.59;;;-146.98;99.03
28432;BME280;15664;51.302;7.744;2023-03-25T10:21:57;83232.56;;;-146.98;99.33
28432;BME280;15664;51.302;7.744;2023-03-25T10:24:24;83197.94;;;-146.98;97.75
28432;BME280;15664;51.302;7.744;2023-03-25T10:29:30;83130.75;;;-146.98;93.80
28432;BME280;15664;51.302;7.744;2023-03-25T10:32:05;83128.72;;;-146.98;92.09
28432;BME280;15664;51.302;7.744;2023-03-25T10:34:39;83087.97;;;-146.98;92.57
28432;BME280;15664;51.302;7.744;2023-03-25T10:37:10;83090.00;;;-146.98;91.72
28432;BME280;15664;51.302;7.744;2023-03-25T10:39:40;83165.38;;;-146.98;90.75
28432;BME280;15664;51.302;7.744;2023-03-25T10:42:23;83183.69;;;-146.98;94.00
28432;BME280;15664;51.302;7.744;2023-03-25T10:44:49;83147.03;;;-146.98;92.48
28432;BME280;15664;51.302;7.744;2023-03-25T10:47:18;83145.00;;;-146.98;93.85
28432;BME280;15664;51.302;7.744;2023-03-25T10:49:47;83122.59;;;-146.98;93.19
28432;BME280;15664;51.302;7.744;2023-03-25T10:52:14;83118.53;;;-146.98;92.48
28432;BME280;15664;51.302;7.744;2023-03-25T10:54:43;83128.72;;;-146.98;89.65
28432;BME280;15664;51.302;7.744;2023-03-25T10:57:17;83108.34;;;-146.98;88.28
28432;BME280;15664;51.302;7.744;2023-03-25T10:59:54;83090.00;;;-146.98;87.23
28432;BME280;15664;51.302;7.744;2023-03-25T11:02:24;83055.41;;;-146.98;87.14
28432;BME280;15664;51.302;7.744;2023-03-25T11:04:55;83112.41;;;-146.98;90.19
28432;BME280;15664;51.302;7.744;2023-03-25T11:07:26;83161.28;;;-146.98;92.40
28432;BME280;15664;51.302;7.744;2023-03-25T11:10:07;83124.63;;;-146.98;94.92
28432;BME280;15664;51.302;7.744;2023-03-25T11:12:33;83169.44;;;-146.98;94.46
28432;BME280;15664;51.302;7.744;2023-03-25T11:14:58;83145.00;;;-146.98;95.70
28432;BME280;15664;51.302;7.744;2023-03-25T11:17:25;83169.44;;;-146.98;95.61
28432;BME280;15664;51.302;7.744;2023-03-25T11:19:58;83132.78;;;-146.98;94.88
28432;BME280;15664;51.302;7.744;2023-03-25T11:22:30;83124.63;;;-146.98;92.85
28432;BME280;15664;51.302;7.744;2023-03-25T11:25:24;83132.78;;;-146.98;93.31
28432;BME280;15664;51.302;7.744;2023-03-25T11:28:10;83145.00;;;-146.98;94.55
28432;BME280;15664;51.302;7.744;2023-03-25T11:30:36;83108.34;;;-146.98;96.59
28432;BME280;15664;51.302;7.744;2023-03-25T11:33:04;83114.44;;;-146.98;94.52
28432;BME280;15664;51.302;7.744;2023-03-25T11:35:32;83085.94;;;-146.98;94.65
28432;BME280;15664;51.302;7.744;2023-03-25T11:38:12;83079.84;;;-146.98;93.50
28432;BME280;15664;51.302;7.744;2023-03-25T11:40:49;83071.69;;;-146.98;93.84
28432;BME280;15664;51.302;7.744;2023-03-25T11:43:19;83087.97;;;-146.98;94.99
28432;BME280;15664;51.302;7.744;2023-03-25T11:45:45;83065.56;;;-146.98;93.11
28432;BME280;15664;51.302;7.744;2023-03-25T11:48:16;83047.25;;;-146.98;92.34
28432;BME280;15664;51.302;7.744;2023-03-25T11:50:48;83067.63;;;-146.98;93.62
28432;BME280;15664;51.302;7.744;2023-03-25T11:53:19;83100.19;;;-146.98;92.99
28432;BME280;15664;51.302;7.744;2023-03-25T11:55:50;82992.28;;;-146.98;91.01
28432;BME280;15664;51.302;7.744;2023-03-25T11:58:27;83067.63;;;-146.98;87.94
28432;BME280;15664;51.302;7.744;2023-03-25T12:01:06;83002.44;;;-146.98;88.48
28432;BME280;15664;51.302;7.744;2023-03-25T12:03:33;82982.09;;;-146.98;89.82
28432;BME280;15664;51.302;7.744;2023-03-25T12:06:05;82969.88;;;-146.98;88.46
28432;BME280;15664;51.302;7.744;2023-03-25T12:08:56;82927.09;;;-146.98;85.94
28432;BME280;15664;51.302;7.744;2023-03-25T12:11:50;83065.56;;;-146.98;88.22
28432;BME280;15664;51.302;7.744;2023-03-25T12:14:42;83085.94;;;-146.98;89.18
28432;BME280;15664;51.302;7.744;2023-03-25T12:17:52;83083.91;;;-146.98;90.04
28432;BME280;15664;51.302;7.744;2023-03-25T12:23:40;83087.97;;;-146.98;87.69
28432;BME280;15664;51.302;7.744;2023-03-25T12:26:15;83063.53;;;-146.98;87.18
28432;BME280;15664;51.302;7.744;2023-03-25T12:37:44;83069.66;;;-146.98;86.32
28432;BME280;15664;51.302;7.744;2023-03-25T12:43:14;82967.84;;;-146.98;81.63
28432;BME280;15664;51.302;7.744;2023-03-25T12:45:56;83039.09;;;-146.98;81.05
28432;BME280;15664;51.302;7.744;2023-03-25T12:48:37;83002.44;;;-146.98;82.73
28432;BME280;15664;51.302;7.744;2023-03-25T12:56:57;83087.97;;;-146.98;88.50
28432;BME280;15664;51.302;7.744;2023-03-25T12:59:42;83155.19;;;-146.98;91.87
28432;BME280;15664;51.302;7.744;2023-03-25T13:04:52;83208.13;;;-146.98;95.01
28432;BME280;15664;51.302;7.744;2023-03-25T13:07:25;83185.72;;;-146.98;96.01
28432;BME280;15664;51.302;7.744;2023-03-25T13:12:40;83035.03;;;-146.98;93.81
28432;BME280;15664;51.302;7.744;2023-03-25T13:15:13;83014.66;;;-146.98;90.46
28432;BME280;15664;51.302;7.744;2023-03-25T13:17:46;82849.72;;;-146.98;84.57
28432;BME280;15664;51.302;7.744;2023-03-25T13:20:13;82809.00;;;-146.98;79.41
28432;BME280;15664;51.302;7.744;2023-03-25T13:22:43;82800.84;;;-146.98;78.41
28432;BME280;15664;51.302;7.744;2023-03-25T13:25:23;82843.63;;;-146.98;75.71
28432;BME280;15664;51.302;7.744;2023-03-25T13:27:52;82676.66;;;-146.98;73.73
28432;BME280;15664;51.302;7.744;2023-03-25T13:30:27;82717.38;;;-146.98;71.99
28432;BME280;15664;51.302;7.744;2023-03-25T13:32:56;82762.16;;;-146.98;73.32
28432;BME280;15664;51.302;7.744;2023-03-25T13:35:41;82745.88;;;-146.98;71.12
28432;BME280;15664;51.302;7.744;2023-03-25T13:38:14;82660.34;;;-146.98;71.83
28432;BME280;15664;51.302;7.744;2023-03-25T13:40:56;82770.31;;;-146.98;72.50
28432;BME280;15664;51.302;7.744;2023-03-25T13:43:27;82802.91;;;-146.98;75.55
28432;BME280;15664;51.302;7.744;2023-03-25T13:46:08;82809.00;;;-146.98;76.06
28432;BME280;15664;51.302;7.744;2023-03-25T13:48:54;82770.31;;;-146.98;73.75
28432;BME280;15664;51.302;7.744;2023-03-25T13:51:23;82786.59;;;-146.98;75.47
28432;BME280;15664;51.302;7.744;2023-03-25T13:53:56;82823.25;;;-146.98;74.42
28432;BME280;15664;51.302;7.744;2023-03-25T13:56:40;82904.72;;;-146.98;77.16
28432;BME280;15664;51.302;7.744;2023-03-25T13:59:41;82925.06;;;-146.98;79.42
28432;BME280;15664;51.302;7.744;2023-03-25T14:02:37;82961.72;;;-146.98;81.37
28432;BME280;15664;51.302;7.744;2023-03-25T14:13:50;83271.25;;;-146.98;97.31
28432;BME280;15664;51.302;7.744;2023-03-25T14:16:20;83228.50;;;-146.98;100.00